sensor_id;sensor_type;location;lat;lon;timestamp;temperature;humidity
42097;DHT22;27754;45.414;11.084;2022-07-29T00:00:05;22.90;75.10
42097;DHT22;27754;45.414;11.084;2022-07-29T00:02:33;22.90;75.30
42097;DHT22;27754;45.414;11.084;2022-07-29T00:05:00;22.80;76.10
42097;DHT22;27754;45.414;11.084;2022-07-29T00:07:27;22.60;76.90
42097;DHT22;27754;45.414;11.084;2022-07-29T00:09:54;22.50;77.20
42097;DHT22;27754;45.414;11.084;2022-07-29T00:12:23;22.50;77.20
42097;DHT22;27754;45.414;11.084;2022-07-29T00:14:55;22.50;76.90
42097;DHT22;27754;45.414;11.084;2022-07-29T00:17:24;22.40;76.90
42097;DHT22;27754;45.414;11.084;2022-07-29T00:19:51;22.40;77.20
42097;DHT22;27754;45.414;11.084;2022-07-29T00:22:19;22.60;77.20
42097;DHT22;27754;45.414;11.084;2022-07-29T00:24:47;22.60;77.10
42097;DHT22;27754;45.414;11.084;2022-07-29T00:27:16;22.40;77.00
42097;DHT22;27754;45.414;11.084;2022-07-29T00:29:44;22.60;77.80
42097;DHT22;27754;45.414;11.084;2022-07-29T00:32:11;22.60;76.50
42097;DHT22;27754;45.414;11.084;2022-07-29T00:34:37;22.70;76.60
42097;DHT22;27754;45.414;11.084;2022-07-29T00:37:23;22.80;76.40
42097;DHT22;27754;45.414;11.084;2022-07-29T00:39:50;22.70;76.60
42097;DHT22;27754;45.414;11.084;2022-07-29T00:42:17;22.60;76.90
42097;DHT22;27754;45.414;11.084;2022-07-29T00:44:44;22.60;77.50
42097;DHT22;27754;45.414;11.084;2022-07-29T00:47:11;22.60;77.20
42097;DHT22;27754;45.414;11.084;2022-07-29T00:49:40;22.60;77.20
42097;DHT22;27754;45.414;11.084;2022-07-29T00:52:08;22.70;76.90
42097;DHT22;27754;45.414;11.084;2022-07-29T00:54:38;22.80;76.70
42097;DHT22;27754;45.414;11.084;2022-07-29T00:57:11;22.80;77.10
42097;DHT22;27754;45.414;11.084;2022-07-29T00:59:38;22.60;78.10
42097;DHT22;27754;45.414;11.084;2022-07-29T01:02:05;22.50;77.50
42097;DHT22;27754;45.414;11.084;2022-07-29T01:04:32;22.60;77.40
42097;DHT22;27754;45.414;11.084;2022-07-29T01:07:03;22.70;76.40
42097;DHT22;27754;45.414;11.084;2022-07-29T01:09:34;22.80;76.90
42097;DHT22;27754;45.414;11.084;2022-07-29T01:12:18;22.70;77.10
42097;DHT22;27754;45.414;11.084;2022-07-29T01:14:49;22.70;78.20
42097;DHT22;27754;45.414;11.084;2022-07-29T01:17:36;22.80;78.00
42097;DHT22;27754;45.414;11.084;2022-07-29T01:28:40;23.00;77.70
42097;DHT22;27754;45.414;11.084;2022-07-29T01:31:12;23.00;77.60
42097;DHT22;27754;45.414;11.084;2022-07-29T01:33:57;22.90;78.30
42097;DHT22;27754;45.414;11.084;2022-07-29T01:36:37;22.90;77.30
42097;DHT22;27754;45.414;11.084;2022-07-29T01:39:27;22.80;77.60
42097;DHT22;27754;45.414;11.084;2022-07-29T01:42:10;22.80;77.50
42097;DHT22;27754;45.414;11.084;2022-07-29T01:50:23;22.70;77.10
42097;DHT22;27754;45.414;11.084;2022-07-29T01:52:56;22.70;78.40
42097;DHT22;27754;45.414;11.084;2022-07-29T01:55:29;22.70;78.00
42097;DHT22;27754;45.414;11.084;2022-07-29T01:57:59;22.70;77.80
42097;DHT22;27754;45.414;11.084;2022-07-29T02:00:27;22.60;78.20
42097;DHT22;27754;45.414;11.084;2022-07-29T02:02:56;22.60;78.40
42097;DHT22;27754;45.414;11.084;2022-07-29T02:05:24;22.60;78.30
42097;DHT22;27754;45.414;11.084;2022-07-29T02:07:53;22.60;78.80
42097;DHT22;27754;45.414;11.084;2022-07-29T02:10:23;22.60;78.70
42097;DHT22;27754;45.414;11.084;2022-07-29T02:12:52;22.60;79.30
42097;DHT22;27754;45.414;11.084;2022-07-29T02:15:22;22.60;78.90
42097;DHT22;27754;45.414;11.084;2022-07-29T02:17:54;22.60;79.20
42097;DHT22;27754;45.414;11.084;2022-07-29T02:20:22;22.60;79.80
42097;DHT22;27754;45.414;11.084;2022-07-29T02:22:52;22.50;79.60
42097;DHT22;27754;45.414;11.084;2022-07-29T02:25:22;22.50;79.60
42097;DHT22;27754;45.414;11.084;2022-07-29T02:27:51;22.40;80.00
42097;DHT22;27754;45.414;11.084;2022-07-29T02:30:20;22.40;80.50
42097;DHT22;27754;45.414;11.084;2022-07-29T02:32:49;22.30;80.40
42097;DHT22;27754;45.414;11.084;2022-07-29T02:35:18;22.30;80.00
42097;DHT22;27754;45.414;11.084;2022-07-29T02:37:46;22.30;80.10
42097;DHT22;27754;45.414;11.084;2022-07-29T02:40:38;22.30;81.10
42097;DHT22;27754;45.414;11.084;2022-07-29T02:43:08;22.30;81.00
42097;DHT22;27754;45.414;11.084;2022-07-29T02:45:36;22.30;81.10
42097;DHT22;27754;45.414;11.084;2022-07-29T02:48:13;22.30;80.60
42097;DHT22;27754;45.414;11.084;2022-07-29T02:50:50;22.20;80.80
42097;DHT22;27754;45.414;11.084;2022-07-29T02:53:22;22.30;80.70
42097;DHT22;27754;45.414;11.084;2022-07-29T02:55:59;22.10;81.50
42097;DHT22;27754;45.414;11.084;2022-07-29T02:58:32;22.10;81.20
42097;DHT22;27754;45.414;11.084;2022-07-29T03:01:03;22.10;81.70
42097;DHT22;27754;45.414;11.084;2022-07-29T03:03:37;22.10;81.00
42097;DHT22;27754;45.414;11.084;2022-07-29T03:06:05;22.10;81.20
42097;DHT22;27754;45.414;11.084;2022-07-29T03:08:34;22.10;81.70
42097;DHT22;27754;45.414;11.084;2022-07-29T03:11:01;22.10;82.00
42097;DHT22;27754;45.414;11.084;2022-07-29T03:13:29;22.10;82.10
42097;DHT22;27754;45.414;11.084;2022-07-29T03:15:57;22.00;82.20
42097;DHT22;27754;45.414;11.084;2022-07-29T03:18:25;22.10;82.00
42097;DHT22;27754;45.414;11.084;2022-07-29T03:20:53;22.00;81.70
42097;DHT22;27754;45.414;11.084;2022-07-29T03:23:21;22.00;81.70
42097;DHT22;27754;45.414;11.084;2022-07-29T03:25:49;21.90;81.80
42097;DHT22;27754;45.414;11.084;2022-07-29T03:28:17;21.90;81.80
42097;DHT22;27754;45.414;11.084;2022-07-29T03:30:45;21.90;81.90
42097;DHT22;27754;45.414;11.084;2022-07-29T03:33:12;21.90;82.10
42097;DHT22;27754;45.414;11.084;2022-07-29T03:35:39;21.90;82.50
42097;DHT22;27754;45.414;11.084;2022-07-29T03:38:06;21.90;82.10
42097;DHT22;27754;45.414;11.084;2022-07-29T03:40:53;21.80;81.90
42097;DHT22;27754;45.414;11.084;2022-07-29T03:43:21;21.90;81.10
42097;DHT22;27754;45.414;11.084;2022-07-29T03:45:52;21.90;80.90
42097;DHT22;27754;45.414;11.084;2022-07-29T03:48:24;22.00;80.10
42097;DHT22;27754;45.414;11.084;2022-07-29T03:50:53;22.10;79.40
42097;DHT22;27754;45.414;11.084;2022-07-29T03:53:20;22.10;79.00
42097;DHT22;27754;45.414;11.084;2022-07-29T03:55:50;22.10;78.10
42097;DHT22;27754;45.414;11.084;2022-07-29T03:58:18;22.00;77.90
42097;DHT22;27754;45.414;11.084;2022-07-29T04:00:46;22.00;77.50
42097;DHT22;27754;45.414;11.084;2022-07-29T04:03:15;22.00;77.80
42097;DHT22;27754;45.414;11.084;2022-07-29T04:05:42;22.00;77.60
42097;DHT22;27754;45.414;11.084;2022-07-29T04:08:09;22.00;77.50
42097;DHT22;27754;45.414;11.084;2022-07-29T04:10:37;22.00;77.50
42097;DHT22;27754;45.414;11.084;2022-07-29T04:13:05;22.00;77.60
42097;DHT22;27754;45.414;11.084;2022-07-29T04:15:32;22.00;77.30
42097;DHT22;27754;45.414;11.084;2022-07-29T04:17:59;22.10;77.10
42097;DHT22;27754;45.414;11.084;2022-07-29T04:20:26;22.20;76.60
42097;DHT22;27754;45.414;11.084;2022-07-29T04:22:53;22.20;76.30
42097;DHT22;27754;45.414;11.084;2022-07-29T04:25:20;22.30;76.50
42097;DHT22;27754;45.414;11.084;2022-07-29T04:27:47;22.40;76.00
42097;DHT22;27754;45.414;11.084;2022-07-29T04:30:27;22.60;75.90
42097;DHT22;27754;45.414;11.084;2022-07-29T04:32:54;22.90;75.90
42097;DHT22;27754;45.414;11.084;2022-07-29T04:35:21;23.20;76.50
42097;DHT22;27754;45.414;11.084;2022-07-29T04:37:48;23.40;76.00
42097;DHT22;27754;45.414;11.084;2022-07-29T04:40:15;23.50;76.10
42097;DHT22;27754;45.414;11.084;2022-07-29T04:42:42;23.70;75.70
42097;DHT22;27754;45.414;11.084;2022-07-29T04:45:12;23.80;76.00
42097;DHT22;27754;45.414;11.084;2022-07-29T04:47:39;23.60;76.20
42097;DHT22;27754;45.414;11.084;2022-07-29T04:50:08;23.50;77.30
42097;DHT22;27754;45.414;11.084;2022-07-29T04:52:35;23.30;77.20
42097;DHT22;27754;45.414;11.084;2022-07-29T04:55:04;23.10;78.20
42097;DHT22;27754;45.414;11.084;2022-07-29T04:57:31;23.20;78.00
42097;DHT22;27754;45.414;11.084;2022-07-29T04:59:58;23.40;77.00
42097;DHT22;27754;45.414;11.084;2022-07-29T05:02:25;23.50;76.50
42097;DHT22;27754;45.414;11.084;2022-07-29T05:04:52;23.50;76.30
42097;DHT22;27754;45.414;11.084;2022-07-29T05:07:19;23.70;76.40
42097;DHT22;27754;45.414;11.084;2022-07-29T05:09:46;23.80;75.60
42097;DHT22;27754;45.414;11.084;2022-07-29T05:12:13;24.00;74.50
42097;DHT22;27754;45.414;11.084;2022-07-29T05:14:39;24.20;74.50
42097;DHT22;27754;45.414;11.084;2022-07-29T05:17:06;24.40;74.00
42097;DHT22;27754;45.414;11.084;2022-07-29T05:19:33;24.70;73.50
42097;DHT22;27754;45.414;11.084;2022-07-29T05:22:05;24.90;72.40
42097;DHT22;27754;45.414;11.084;2022-07-29T05:24:32;25.40;71.30
42097;DHT22;27754;45.414;11.084;2022-07-29T05:26:59;25.80;70.10
42097;DHT22;27754;45.414;11.084;2022-07-29T05:29:26;25.90;69.80
42097;DHT22;27754;45.414;11.084;2022-07-29T05:32:12;25.90;69.20
42097;DHT22;27754;45.414;11.084;2022-07-29T05:34:40;26.30;67.60
42097;DHT22;27754;45.414;11.084;2022-07-29T05:37:18;26.30;67.70
42097;DHT22;27754;45.414;11.084;2022-07-29T05:39:45;26.40;67.40
42097;DHT22;27754;45.414;11.084;2022-07-29T05:42:16;26.60;67.20
42097;DHT22;27754;45.414;11.084;2022-07-29T05:44:43;26.30;67.50
42097;DHT22;27754;45.414;11.084;2022-07-29T05:47:10;26.00;69.20
42097;DHT22;27754;45.414;11.084;2022-07-29T05:49:38;25.90;69.40
42097;DHT22;27754;45.414;11.084;2022-07-29T05:52:05;25.80;69.90
42097;DHT22;27754;45.414;11.084;2022-07-29T05:54:32;25.80;69.80
42097;DHT22;27754;45.414;11.084;2022-07-29T05:56:59;25.80;70.20
42097;DHT22;27754;45.414;11.084;2022-07-29T05:59:26;25.80;69.50
42097;DHT22;27754;45.414;11.084;2022-07-29T06:01:56;25.90;69.20
42097;DHT22;27754;45.414;11.084;2022-07-29T06:04:24;25.80;69.10
42097;DHT22;27754;45.414;11.084;2022-07-29T06:06:51;26.30;67.60
42097;DHT22;27754;45.414;11.084;2022-07-29T06:09:18;26.60;66.60
42097;DHT22;27754;45.414;11.084;2022-07-29T06:11:45;26.60;66.70
42097;DHT22;27754;45.414;11.084;2022-07-29T06:14:12;26.80;66.40
42097;DHT22;27754;45.414;11.084;2022-07-29T06:16:40;27.10;65.60
42097;DHT22;27754;45.414;11.084;2022-07-29T06:19:07;27.30;64.80
42097;DHT22;27754;45.414;11.084;2022-07-29T06:21:35;27.30;64.40
42097;DHT22;27754;45.414;11.084;2022-07-29T06:24:07;27.30;64.00
42097;DHT22;27754;45.414;11.084;2022-07-29T06:26:34;27.60;63.80
42097;DHT22;27754;45.414;11.084;2022-07-29T06:29:06;27.40;63.90
42097;DHT22;27754;45.414;11.084;2022-07-29T06:31:33;27.30;64.20
42097;DHT22;27754;45.414;11.084;2022-07-29T06:34:00;27.60;65.10
42097;DHT22;27754;45.414;11.084;2022-07-29T06:36:29;27.60;64.30
42097;DHT22;27754;45.414;11.084;2022-07-29T06:38:56;27.90;64.40
42097;DHT22;27754;45.414;11.084;2022-07-29T06:41:23;28.10;61.90
42097;DHT22;27754;45.414;11.084;2022-07-29T06:43:51;28.20;61.60
42097;DHT22;27754;45.414;11.084;2022-07-29T06:46:22;28.20;61.80
42097;DHT22;27754;45.414;11.084;2022-07-29T06:48:50;28.20;61.70
42097;DHT22;27754;45.414;11.084;2022-07-29T06:51:19;28.30;61.90
42097;DHT22;27754;45.414;11.084;2022-07-29T06:53:50;28.60;59.50
42097;DHT22;27754;45.414;11.084;2022-07-29T06:56:32;28.50;59.60
42097;DHT22;27754;45.414;11.084;2022-07-29T06:59:06;28.70;59.80
42097;DHT22;27754;45.414;11.084;2022-07-29T07:01:33;28.80;58.70
42097;DHT22;27754;45.414;11.084;2022-07-29T07:04:00;28.70;59.50
42097;DHT22;27754;45.414;11.084;2022-07-29T07:06:27;28.80;59.10
42097;DHT22;27754;45.414;11.084;2022-07-29T07:08:54;29.10;59.40
42097;DHT22;27754;45.414;11.084;2022-07-29T07:11:21;28.30;61.20
42097;DHT22;27754;45.414;11.084;2022-07-29T07:13:48;27.70;61.10
42097;DHT22;27754;45.414;11.084;2022-07-29T07:16:15;27.90;61.60
42097;DHT22;27754;45.414;11.084;2022-07-29T07:18:42;28.20;60.80
42097;DHT22;27754;45.414;11.084;2022-07-29T07:21:12;28.30;60.00
42097;DHT22;27754;45.414;11.084;2022-07-29T07:23:45;27.90;60.70
42097;DHT22;27754;45.414;11.084;2022-07-29T07:26:12;27.60;60.80
42097;DHT22;27754;45.414;11.084;2022-07-29T07:28:39;27.30;62.60
42097;DHT22;27754;45.414;11.084;2022-07-29T07:31:06;27.70;62.30
42097;DHT22;27754;45.414;11.084;2022-07-29T07:33:33;28.00;61.30
42097;DHT22;27754;45.414;11.084;2022-07-29T07:36:00;28.20;60.60
42097;DHT22;27754;45.414;11.084;2022-07-29T07:38:27;28.40;60.50
42097;DHT22;27754;45.414;11.084;2022-07-29T07:40:54;28.60;61.30
42097;DHT22;27754;45.414;11.084;2022-07-29T07:43:21;28.70;60.60
42097;DHT22;27754;45.414;11.084;2022-07-29T07:45:49;28.50;61.60
42097;DHT22;27754;45.414;11.084;2022-07-29T07:48:16;28.70;61.20
42097;DHT22;27754;45.414;11.084;2022-07-29T07:50:43;28.70;60.80
42097;DHT22;27754;45.414;11.084;2022-07-29T07:53:10;28.80;59.70
42097;DHT22;27754;45.414;11.084;2022-07-29T07:55:41;29.00;57.80
42097;DHT22;27754;45.414;11.084;2022-07-29T07:58:28;29.40;57.30
42097;DHT22;27754;45.414;11.084;2022-07-29T08:00:55;29.80;55.90
42097;DHT22;27754;45.414;11.084;2022-07-29T08:03:22;29.70;54.50
42097;DHT22;27754;45.414;11.084;2022-07-29T08:05:49;29.40;56.40
42097;DHT22;27754;45.414;11.084;2022-07-29T08:08:18;29.40;56.60
42097;DHT22;27754;45.414;11.084;2022-07-29T08:10:45;29.10;57.00
42097;DHT22;27754;45.414;11.084;2022-07-29T08:13:24;29.10;57.80
42097;DHT22;27754;45.414;11.084;2022-07-29T08:15:52;29.10;58.90
42097;DHT22;27754;45.414;11.084;2022-07-29T08:18:28;29.30;58.00
42097;DHT22;27754;45.414;11.084;2022-07-29T08:20:55;29.70;58.10
42097;DHT22;27754;45.414;11.084;2022-07-29T08:23:23;29.80;57.30
42097;DHT22;27754;45.414;11.084;2022-07-29T08:25:51;29.60;58.00
42097;DHT22;27754;45.414;11.084;2022-07-29T08:28:20;29.30;57.50
42097;DHT22;27754;45.414;11.084;2022-07-29T08:30:51;29.30;58.00
42097;DHT22;27754;45.414;11.084;2022-07-29T08:33:18;29.60;57.40
42097;DHT22;27754;45.414;11.084;2022-07-29T08:35:45;29.80;56.50
42097;DHT22;27754;45.414;11.084;2022-07-29T08:38:13;30.00;55.40
42097;DHT22;27754;45.414;11.084;2022-07-29T08:40:40;30.30;55.40
42097;DHT22;27754;45.414;11.084;2022-07-29T08:43:08;30.20;54.40
42097;DHT22;27754;45.414;11.084;2022-07-29T08:45:50;30.10;53.40
42097;DHT22;27754;45.414;11.084;2022-07-29T08:48:22;30.30;54.80
42097;DHT22;27754;45.414;11.084;2022-07-29T08:50:55;30.40;56.00
42097;DHT22;27754;45.414;11.084;2022-07-29T08:53:24;30.60;55.30
42097;DHT22;27754;45.414;11.084;2022-07-29T08:55:53;30.80;55.20
42097;DHT22;27754;45.414;11.084;2022-07-29T08:58:21;31.00;54.30
42097;DHT22;27754;45.414;11.084;2022-07-29T09:00:51;31.10;53.70
42097;DHT22;27754;45.414;11.084;2022-07-29T09:03:24;31.20;54.20
42097;DHT22;27754;45.414;11.084;2022-07-29T09:05:51;31.00;54.50
42097;DHT22;27754;45.414;11.084;2022-07-29T09:08:19;31.00;54.50
42097;DHT22;27754;45.414;11.084;2022-07-29T09:10:47;30.90;54.70
42097;DHT22;27754;45.414;11.084;2022-07-29T09:13:14;31.30;53.70
42097;DHT22;27754;45.414;11.084;2022-07-29T09:15:41;31.00;53.90
42097;DHT22;27754;45.414;11.084;2022-07-29T09:18:08;31.10;53.80
42097;DHT22;27754;45.414;11.084;2022-07-29T09:20:55;31.20;53.70
42097;DHT22;27754;45.414;11.084;2022-07-29T09:23:40;31.30;53.00
42097;DHT22;27754;45.414;11.084;2022-07-29T09:26:09;31.70;53.80
42097;DHT22;27754;45.414;11.084;2022-07-29T09:28:41;31.90;52.70
42097;DHT22;27754;45.414;11.084;2022-07-29T09:31:09;32.10;52.40
42097;DHT22;27754;45.414;11.084;2022-07-29T09:33:36;32.10;52.50
42097;DHT22;27754;45.414;11.084;2022-07-29T09:36:09;31.90;52.40
42097;DHT22;27754;45.414;11.084;2022-07-29T09:38:38;32.30;51.80
42097;DHT22;27754;45.414;11.084;2022-07-29T09:41:05;32.40;50.90
42097;DHT22;27754;45.414;11.084;2022-07-29T09:43:33;32.40;50.40
42097;DHT22;27754;45.414;11.084;2022-07-29T09:46:13;32.60;50.20
42097;DHT22;27754;45.414;11.084;2022-07-29T09:48:41;32.80;49.70
42097;DHT22;27754;45.414;11.084;2022-07-29T09:51:21;32.60;49.80
42097;DHT22;27754;45.414;11.084;2022-07-29T09:54:25;31.80;51.00
42097;DHT22;27754;45.414;11.084;2022-07-29T09:56:53;31.70;52.10
42097;DHT22;27754;45.414;11.084;2022-07-29T09:59:21;31.80;50.00
42097;DHT22;27754;45.414;11.084;2022-07-29T10:01:52;31.80;51.70
42097;DHT22;27754;45.414;11.084;2022-07-29T10:04:21;32.00;50.70
42097;DHT22;27754;45.414;11.084;2022-07-29T10:06:58;32.10;50.30
42097;DHT22;27754;45.414;11.084;2022-07-29T10:09:31;32.20;49.00
42097;DHT22;27754;45.414;11.084;2022-07-29T10:12:12;32.30;49.10
42097;DHT22;27754;45.414;11.084;2022-07-29T10:14:42;32.50;49.50
42097;DHT22;27754;45.414;11.084;2022-07-29T10:17:10;32.60;49.50
42097;DHT22;27754;45.414;11.084;2022-07-29T10:19:38;32.80;48.50
42097;DHT22;27754;45.414;11.084;2022-07-29T10:22:07;32.70;48.90
42097;DHT22;27754;45.414;11.084;2022-07-29T10:24:36;32.70;48.70
42097;DHT22;27754;45.414;11.084;2022-07-29T10:27:08;32.60;49.50
42097;DHT22;27754;45.414;11.084;2022-07-29T10:29:35;32.70;49.50
42097;DHT22;27754;45.414;11.084;2022-07-29T10:38:34;33.00;48.60
42097;DHT22;27754;45.414;11.084;2022-07-29T10:44:14;32.50;48.80
42097;DHT22;27754;45.414;11.084;2022-07-29T10:46:49;32.70;48.20
42097;DHT22;27754;45.414;11.084;2022-07-29T10:49:19;32.80;48.50
42097;DHT22;27754;45.414;11.084;2022-07-29T10:54:42;32.90;48.30
42097;DHT22;27754;45.414;11.084;2022-07-29T10:59:42;33.00;47.90
42097;DHT22;27754;45.414;11.084;2022-07-29T11:05:15;33.10;47.90
42097;DHT22;27754;45.414;11.084;2022-07-29T11:08:23;33.10;47.40
42097;DHT22;27754;45.414;11.084;2022-07-29T11:11:30;32.90;47.40
42097;DHT22;27754;45.414;11.084;2022-07-29T11:16:13;32.90;48.40
42097;DHT22;27754;45.414;11.084;2022-07-29T11:21:41;33.20;47.50
42097;DHT22;27754;45.414;11.084;2022-07-29T11:24:23;33.20;47.60
42097;DHT22;27754;45.414;11.084;2022-07-29T11:27:18;33.10;48.10
42097;DHT22;27754;45.414;11.084;2022-07-29T11:32:17;32.90;47.30
42097;DHT22;27754;45.414;11.084;2022-07-29T11:35:19;32.80;48.10
42097;DHT22;27754;45.414;11.084;2022-07-29T11:38:26;32.90;48.50
42097;DHT22;27754;45.414;11.084;2022-07-29T11:41:29;33.10;48.30
42097;DHT22;27754;45.414;11.084;2022-07-29T11:44:03;33.30;48.10
42097;DHT22;27754;45.414;11.084;2022-07-29T11:49:26;32.70;49.00
42097;DHT22;27754;45.414;11.084;2022-07-29T11:51:59;32.80;49.20
42097;DHT22;27754;45.414;11.084;2022-07-29T11:54:34;33.00;49.10
42097;DHT22;27754;45.414;11.084;2022-07-29T11:57:21;32.80;49.00
42097;DHT22;27754;45.414;11.084;2022-07-29T12:00:06;32.80;48.60
42097;DHT22;27754;45.414;11.084;2022-07-29T12:02:40;33.10;48.60
42097;DHT22;27754;45.414;11.084;2022-07-29T12:05:10;33.30;47.40
42097;DHT22;27754;45.414;11.084;2022-07-29T12:07:40;33.30;47.70
42097;DHT22;27754;45.414;11.084;2022-07-29T12:10:13;33.40;47.70
42097;DHT22;27754;45.414;11.084;2022-07-29T12:12:55;33.60;47.50
42097;DHT22;27754;45.414;11.084;2022-07-29T12:15:22;33.80;47.10
42097;DHT22;27754;45.414;11.084;2022-07-29T12:18:15;33.80;46.30
42097;DHT22;27754;45.414;11.084;2022-07-29T12:20:44;34.00;45.80
42097;DHT22;27754;45.414;11.084;2022-07-29T12:23:11;33.80;46.50
42097;DHT22;27754;45.414;11.084;2022-07-29T12:25:40;33.90;46.30
42097;DHT22;27754;45.414;11.084;2022-07-29T12:28:14;34.00;46.20
42097;DHT22;27754;45.414;11.084;2022-07-29T12:30:53;34.00;46.10
42097;DHT22;27754;45.414;11.084;2022-07-29T12:33:27;33.70;46.70
42097;DHT22;27754;45.414;11.084;2022-07-29T12:35:56;33.60;47.20
42097;DHT22;27754;45.414;11.084;2022-07-29T12:38:35;33.50;47.20
42097;DHT22;27754;45.414;11.084;2022-07-29T12:41:03;33.50;47.40
42097;DHT22;27754;45.414;11.084;2022-07-29T12:43:32;33.60;47.00
42097;DHT22;27754;45.414;11.084;2022-07-29T12:46:12;33.20;47.30
42097;DHT22;27754;45.414;11.084;2022-07-29T12:48:41;32.80;47.60
42097;DHT22;27754;45.414;11.084;2022-07-29T12:51:09;32.80;47.80
42097;DHT22;27754;45.414;11.084;2022-07-29T12:53:38;33.00;47.60
42097;DHT22;27754;45.414;11.084;2022-07-29T12:56:06;33.00;47.60
42097;DHT22;27754;45.414;11.084;2022-07-29T12:59:11;33.30;47.20
42097;DHT22;27754;45.414;11.084;2022-07-29T13:01:39;33.60;46.60
42097;DHT22;27754;45.414;11.084;2022-07-29T13:04:06;33.30;47.20
42097;DHT22;27754;45.414;11.084;2022-07-29T13:09:12;33.40;47.10
42097;DHT22;27754;45.414;11.084;2022-07-29T13:11:41;33.40;47.40
42097;DHT22;27754;45.414;11.084;2022-07-29T13:17:05;33.30;46.90
42097;DHT22;27754;45.414;11.084;2022-07-29T13:19:44;32.80;47.80
42097;DHT22;27754;45.414;11.084;2022-07-29T13:22:14;32.60;48.30
42097;DHT22;27754;45.414;11.084;2022-07-29T13:25:01;33.20;47.30
42097;DHT22;27754;45.414;11.084;2022-07-29T13:27:32;33.20;46.70
42097;DHT22;27754;45.414;11.084;2022-07-29T13:30:02;33.30;46.00
42097;DHT22;27754;45.414;11.084;2022-07-29T13:32:32;33.50;46.20
42097;DHT22;27754;45.414;11.084;2022-07-29T13:35:09;33.70;46.50
42097;DHT22;27754;45.414;11.084;2022-07-29T13:37:37;33.50;46.50
42097;DHT22;27754;45.414;11.084;2022-07-29T13:40:08;33.10;47.20
42097;DHT22;27754;45.414;11.084;2022-07-29T13:42:35;33.20;47.60
42097;DHT22;27754;45.414;11.084;2022-07-29T13:45:03;33.00;47.90
42097;DHT22;27754;45.414;11.084;2022-07-29T13:47:31;33.00;47.50
42097;DHT22;27754;45.414;11.084;2022-07-29T13:50:03;33.10;48.10
42097;DHT22;27754;45.414;11.084;2022-07-29T13:52:33;33.30;47.80
42097;DHT22;27754;45.414;11.084;2022-07-29T13:55:00;33.60;47.00
42097;DHT22;27754;45.414;11.084;2022-07-29T13:57:27;33.50;46.80
42097;DHT22;27754;45.414;11.084;2022-07-29T13:59:55;33.20;47.30
42097;DHT22;27754;45.414;11.084;2022-07-29T14:02:22;33.00;47.40
42097;DHT22;27754;45.414;11.084;2022-07-29T14:04:54;33.20;47.40
42097;DHT22;27754;45.414;11.084;2022-07-29T14:07:22;33.30;47.50
42097;DHT22;27754;45.414;11.084;2022-07-29T14:09:49;33.40;47.10
42097;DHT22;27754;45.414;11.084;2022-07-29T14:12:17;33.30;47.30
42097;DHT22;27754;45.414;11.084;2022-07-29T14:14:44;33.10;47.70
42097;DHT22;27754;45.414;11.084;2022-07-29T14:17:13;32.80;47.80
42097;DHT22;27754;45.414;11.084;2022-07-29T14:19:40;32.70;48.80
42097;DHT22;27754;45.414;11.084;2022-07-29T14:22:08;32.80;48.00
42097;DHT22;27754;45.414;11.084;2022-07-29T14:24:36;32.90;47.80
42097;DHT22;27754;45.414;11.084;2022-07-29T14:27:07;33.10;47.30
42097;DHT22;27754;45.414;11.084;2022-07-29T14:29:35;33.10;47.00
42097;DHT22;27754;45.414;11.084;2022-07-29T14:32:08;33.30;46.60
42097;DHT22;27754;45.414;11.084;2022-07-29T14:34:36;33.30;46.50
42097;DHT22;27754;45.414;11.084;2022-07-29T14:37:04;33.40;46.40
42097;DHT22;27754;45.414;11.084;2022-07-29T14:39:42;33.20;46.80
42097;DHT22;27754;45.414;11.084;2022-07-29T14:42:10;33.00;47.30
42097;DHT22;27754;45.414;11.084;2022-07-29T14:44:39;32.90;48.00
42097;DHT22;27754;45.414;11.084;2022-07-29T14:47:07;32.80;48.20
42097;DHT22;27754;45.414;11.084;2022-07-29T14:49:34;32.60;47.40
42097;DHT22;27754;45.414;11.084;2022-07-29T14:52:02;32.60;48.20
42097;DHT22;27754;45.414;11.084;2022-07-29T14:54:29;32.70;48.30
42097;DHT22;27754;45.414;11.084;2022-07-29T14:56:56;32.70;48.50
42097;DHT22;27754;45.414;11.084;2022-07-29T14:59:25;32.70;48.90
42097;DHT22;27754;45.414;11.084;2022-07-29T15:01:52;32.80;48.50
42097;DHT22;27754;45.414;11.084;2022-07-29T15:04:19;32.60;49.00
42097;DHT22;27754;45.414;11.084;2022-07-29T15:06:47;32.30;48.50
42097;DHT22;27754;45.414;11.084;2022-07-29T15:09:14;32.10;49.00
42097;DHT22;27754;45.414;11.084;2022-07-29T15:11:41;32.00;49.90
42097;DHT22;27754;45.414;11.084;2022-07-29T15:14:08;31.90;49.90
42097;DHT22;27754;45.414;11.084;2022-07-29T15:16:36;31.80;51.50
42097;DHT22;27754;45.414;11.084;2022-07-29T15:19:04;31.80;51.00
42097;DHT22;27754;45.414;11.084;2022-07-29T15:21:31;31.70;51.60
42097;DHT22;27754;45.414;11.084;2022-07-29T15:23:58;31.60;51.60
42097;DHT22;27754;45.414;11.084;2022-07-29T15:26:25;31.50;51.60
42097;DHT22;27754;45.414;11.084;2022-07-29T15:28:54;31.40;51.20
42097;DHT22;27754;45.414;11.084;2022-07-29T15:31:22;31.40;51.50
42097;DHT22;27754;45.414;11.084;2022-07-29T15:33:49;31.40;51.80
42097;DHT22;27754;45.414;11.084;2022-07-29T15:36:23;31.30;51.50
42097;DHT22;27754;45.414;11.084;2022-07-29T15:39:10;31.30;51.50
42097;DHT22;27754;45.414;11.084;2022-07-29T15:41:37;31.30;51.50
42097;DHT22;27754;45.414;11.084;2022-07-29T15:44:04;31.30;52.20
42097;DHT22;27754;45.414;11.084;2022-07-29T15:46:31;31.10;52.90
42097;DHT22;27754;45.414;11.084;2022-07-29T15:49:16;31.10;53.60
42097;DHT22;27754;45.414;11.084;2022-07-29T15:51:43;31.10;53.90
42097;DHT22;27754;45.414;11.084;2022-07-29T15:54:10;31.00;54.10
42097;DHT22;27754;45.414;11.084;2022-07-29T15:56:37;30.90;54.70
42097;DHT22;27754;45.414;11.084;2022-07-29T15:59:04;30.90;54.30
42097;DHT22;27754;45.414;11.084;2022-07-29T16:01:51;30.80;54.40
42097;DHT22;27754;45.414;11.084;2022-07-29T16:04:18;30.70;55.30
42097;DHT22;27754;45.414;11.084;2022-07-29T16:06:46;30.70;56.50
42097;DHT22;27754;45.414;11.084;2022-07-29T16:09:14;30.60;57.00
42097;DHT22;27754;45.414;11.084;2022-07-29T16:11:42;30.60;58.20
42097;DHT22;27754;45.414;11.084;2022-07-29T16:14:09;30.40;59.60
42097;DHT22;27754;45.414;11.084;2022-07-29T16:16:39;30.30;61.80
42097;DHT22;27754;45.414;11.084;2022-07-29T16:19:07;30.10;64.40
42097;DHT22;27754;45.414;11.084;2022-07-29T16:21:35;29.80;64.80
42097;DHT22;27754;45.414;11.084;2022-07-29T16:24:04;29.60;65.60